Pelican of London — MWAQ — position and weather

sailwx.info

Track history (hours):
 
Tides and Currents Weather Stations Pressure Air Temp Water Temp Dewpoint Dewpoint Depression Visibility Wind Speed Wind Dir Waves Ship Positions

Pelican of London

Ship's website: http://www.adventureundersail.com/

Last reported at 2019-Aug-22 08:29 UTC. Time now 2019-Aug-22 08:52 UTC.
Position N 51°41' W 008°30'.

Length 35 m; draft 4 m.

Type: Other ship. MMSI: 235057366.

Date/timePositionNaut miles runAvg speedWind from/ knotsBaromVisibWave heightAir tempDewpointWater temp
2019-Aug-22 08:29N 51°41' W 008°30'1 1.9
2019-Aug-22 08:00N 51°42' W 008°31'0 0.0
2019-Aug-22 07:27N 51°42' W 008°31'0 0.0
2019-Aug-22 07:00N 51°42' W 008°31'0 0.0
2019-Aug-22 06:30N 51°42' W 008°31'0 0.0
2019-Aug-22 06:00N 51°42' W 008°31'0 0.0
2019-Aug-22 05:29N 51°42' W 008°31'0 0.0
2019-Aug-22 04:59N 51°42' W 008°31'0 0.0
2019-Aug-22 04:29N 51°42' W 008°31'0 0.0
2019-Aug-22 03:59N 51°42' W 008°31'0 0.0
2019-Aug-22 03:29N 51°42' W 008°31'0 0.0
2019-Aug-22 02:59N 51°42' W 008°31'0 0.0
2019-Aug-22 02:29N 51°42' W 008°31'0 0.0
2019-Aug-22 01:56N 51°42' W 008°31'0 0.0
2019-Aug-22 01:29N 51°42' W 008°31'0 0.0
2019-Aug-22 00:56N 51°42' W 008°31'0 0.0
2019-Aug-22 00:26N 51°42' W 008°31'0 0.0
2019-Aug-21 23:59N 51°42' W 008°31'0 0.0
2019-Aug-21 23:29N 51°42' W 008°31'0 0.0
2019-Aug-21 22:59N 51°42' W 008°31'0 0.0
2019-Aug-21 22:23N 51°42' W 008°31'0 0.0
2019-Aug-21 21:59N 51°42' W 008°31'0 0.0
2019-Aug-21 21:29N 51°42' W 008°31'0 0.0
2019-Aug-21 20:59N 51°42' W 008°31'0 0.0
2019-Aug-21 20:29N 51°42' W 008°31'0 0.0
2019-Aug-21 19:59N 51°42' W 008°31'0 0.0
2019-Aug-21 19:23N 51°42' W 008°31'0 0.0
2019-Aug-21 18:59N 51°42' W 008°31'0 0.0
2019-Aug-21 18:29N 51°42' W 008°31'0 0.0
2019-Aug-21 17:59N 51°42' W 008°31'0 0.0
2019-Aug-21 17:29N 51°42' W 008°31'0 0.0
2019-Aug-21 16:59N 51°42' W 008°31'0 0.4
2019-Aug-21 16:26N 51°42' W 008°31'2 4.2
2019-Aug-21 16:00N 51°41' W 008°30'3 5.3
2019-Aug-21 15:31N 51°38' W 008°31'1 1.6
2019-Aug-21 14:53N 51°37' W 008°32'0 0.0
2019-Aug-21 14:26N 51°37' W 008°32'0 0.0
2019-Aug-21 14:00N 51°37' W 008°32'0 0.0
2019-Aug-21 13:30N 51°37' W 008°32'0 0.0
2019-Aug-21 13:00N 51°37' W 008°32'0 0.0
2019-Aug-21 12:30N 51°37' W 008°32'0 0.0
2019-Aug-21 12:01N 51°37' W 008°32'0 0.0
2019-Aug-21 11:30N 51°37' W 008°32'0 0.0
2019-Aug-21 10:58N 51°37' W 008°32'0 0.0
2019-Aug-21 10:30N 51°37' W 008°32'0 0.0
2019-Aug-21 10:00N 51°37' W 008°32'0 0.0
2019-Aug-21 09:29N 51°37' W 008°32'0 0.0
2019-Aug-21 09:00N 51°37' W 008°32'0 0.0
2019-Aug-21 08:30N 51°37' W 008°32'0 0.0
2019-Aug-21 08:00N 51°37' W 008°32'0 0.1
2019-Aug-21 07:29N 51°37' W 008°32'1 2.5
2019-Aug-21 07:00N 51°38' W 008°30'0 0.9
2019-Aug-21 06:30N 51°38' W 008°30'1 2.4
2019-Aug-21 06:00N 51°38' W 008°28'2 3.1
2019-Aug-21 05:30N 51°38' W 008°25'2 3.3
2019-Aug-21 05:00N 51°38' W 008°22'2 3.7
2019-Aug-21 04:30N 51°39' W 008°20'2 3.6
2019-Aug-21 04:00N 51°39' W 008°17'2 4.1
2019-Aug-21 03:30N 51°39' W 008°13'3 5.6
2019-Aug-21 03:00N 51°40' W 008°09'4 7.1
2019-Aug-21 02:30N 51°40' W 008°03'4 7.1
2019-Aug-21 02:00N 51°41' W 007°58'3 6.8
2019-Aug-21 01:30N 51°41' W 007°52'3 6.2
2019-Aug-21 01:00N 51°42' W 007°47'3 6.2
2019-Aug-21 00:31N 51°44' W 007°44'3 6.5
2019-Aug-21 00:00N 51°46' W 007°40'3 6.3
2019-Aug-20 23:30N 51°48' W 007°37'3 5.7
2019-Aug-20 23:00N 51°50' W 007°33'3 5.5
2019-Aug-20 22:30N 51°52' W 007°30'3 5.2
2019-Aug-20 21:59N 51°54' W 007°27'3 4.5
2019-Aug-20 21:24N 51°56' W 007°24'29 0.8
2019-Aug-19 11:14N 52°08' W 006°42'0 1.7
2019-Aug-19 10:58N 52°09' W 006°42'14 1.6
2019-Aug-19 02:18N 52°02' W 006°22'1 3.8
2019-Aug-19 01:57N 52°03' W 006°21'2 3.9
2019-Aug-19 01:30N 52°05' W 006°19'2 4.1
2019-Aug-19 00:59N 52°06' W 006°17'2 3.9
2019-Aug-19 00:30N 52°08' W 006°15'2 3.4
2019-Aug-19 00:00N 52°09' W 006°13'1 2.9
2019-Aug-18 23:30N 52°10' W 006°12'1 2.5
2019-Aug-18 23:00N 52°11' W 006°11'1 2.1
2019-Aug-18 22:30N 52°12' W 006°11'2 4.0
2019-Aug-18 22:00N 52°14' W 006°13'2 3.0
2019-Aug-18 21:30N 52°15' W 006°15'2 4.3
2019-Aug-18 21:01N 52°15' W 006°18'1 2.0
2019-Aug-18 20:30N 52°16' W 006°20'1 1.0
2019-Aug-18 19:58N 52°15' W 006°20'0 0.0
2019-Aug-18 19:28N 52°15' W 006°20'0 0.0
2019-Aug-18 18:58N 52°15' W 006°20'0 0.0
2019-Aug-18 18:28N 52°15' W 006°20'0 0.0
2019-Aug-18 17:58N 52°15' W 006°20'0 0.0
2019-Aug-18 17:28N 52°15' W 006°20'0 0.0
2019-Aug-18 16:52N 52°15' W 006°20'0 0.0
2019-Aug-18 16:28N 52°15' W 006°20'0 0.0
2019-Aug-18 15:58N 52°15' W 006°20'0 0.0
2019-Aug-18 15:28N 52°15' W 006°20'0 0.0
2019-Aug-18 14:58N 52°15' W 006°20'0 0.0
2019-Aug-18 14:28N 52°15' W 006°20'0 0.0
2019-Aug-18 13:58N 52°15' W 006°20'0 0.0
2019-Aug-18 13:28N 52°15' W 006°20'0 0.0
2019-Aug-18 12:58N 52°15' W 006°20'0 0.0
2019-Aug-18 12:28N 52°15' W 006°20'0 0.0
2019-Aug-18 11:58N 52°15' W 006°20'0 0.0
2019-Aug-18 11:28N 52°15' W 006°20'0 0.0
2019-Aug-18 10:58N 52°15' W 006°20'0 0.0
2019-Aug-18 10:28N 52°15' W 006°20'0 0.0
2019-Aug-18 09:55N 52°15' W 006°20'0 0.0
2019-Aug-18 09:28N 52°15' W 006°20'0 0.0
2019-Aug-18 08:58N 52°15' W 006°20'0 0.0
2019-Aug-18 08:28N 52°15' W 006°20'0 0.0
2019-Aug-18 07:58N 52°15' W 006°20'0 0.0
2019-Aug-18 06:58N 52°15' W 006°20'0 0.0
2019-Aug-18 06:22N 52°15' W 006°20'0 0.0
2019-Aug-18 05:58N 52°15' W 006°20'0 0.0
2019-Aug-18 05:28N 52°15' W 006°20'0 0.0
2019-Aug-18 04:58N 52°15' W 006°20'0 0.0
2019-Aug-18 04:28N 52°15' W 006°20'0 0.0
2019-Aug-18 03:58N 52°15' W 006°20'0 0.0
2019-Aug-18 03:28N 52°15' W 006°20'0 0.0
2019-Aug-18 02:58N 52°15' W 006°20'0 0.0
2019-Aug-18 02:22N 52°15' W 006°20'0 0.0
2019-Aug-18 01:58N 52°15' W 006°20'0 0.0
2019-Aug-18 01:28N 52°15' W 006°20'0 0.0
2019-Aug-18 00:58N 52°15' W 006°20'0 0.0
2019-Aug-18 00:28N 52°15' W 006°20'0 0.0
2019-Aug-17 23:58N 52°15' W 006°20'0 0.0
2019-Aug-17 23:28N 52°15' W 006°20'0 0.0
2019-Aug-17 22:58N 52°15' W 006°20'0 0.0
2019-Aug-17 22:28N 52°15' W 006°20'0 0.0
2019-Aug-17 21:58N 52°15' W 006°20'0 0.0
2019-Aug-17 21:28N 52°15' W 006°20'0 0.0
2019-Aug-17 20:58N 52°15' W 006°20'0 0.0
2019-Aug-17 20:28N 52°15' W 006°20'0 0.0
2019-Aug-17 19:58N 52°15' W 006°20'0 0.0
2019-Aug-17 19:28N 52°15' W 006°20'0 0.0
2019-Aug-17 18:58N 52°15' W 006°20'0 0.0
2019-Aug-17 18:28N 52°15' W 006°20'0 0.0
2019-Aug-17 17:28N 52°15' W 006°20'0 0.0
2019-Aug-17 16:58N 52°15' W 006°20'0 0.0
2019-Aug-17 16:28N 52°15' W 006°20'0 0.0
2019-Aug-17 15:58N 52°15' W 006°20'0 0.0
2019-Aug-17 15:28N 52°15' W 006°20'0 0.0
2019-Aug-17 14:58N 52°15' W 006°20'0 0.0
2019-Aug-17 14:28N 52°15' W 006°20'0 0.0
2019-Aug-17 13:58N 52°15' W 006°20'0 0.0
2019-Aug-17 13:25N 52°15' W 006°20'0 0.0
2019-Aug-17 12:58N 52°15' W 006°20'0 0.0
2019-Aug-17 12:28N 52°15' W 006°20'0 0.0
2019-Aug-17 11:58N 52°15' W 006°20'0 0.0
2019-Aug-17 11:28N 52°15' W 006°20'0 0.0
2019-Aug-17 10:58N 52°15' W 006°20'0 0.0
2019-Aug-17 10:28N 52°15' W 006°20'0 0.0
2019-Aug-17 09:58N 52°15' W 006°20'0 0.0
2019-Aug-17 09:25N 52°15' W 006°20'0 0.0
2019-Aug-17 08:58N 52°15' W 006°20'0 0.0
2019-Aug-17 08:28N 52°15' W 006°20'0 0.0
2019-Aug-17 07:58N 52°15' W 006°20'0 0.0
2019-Aug-17 07:28N 52°15' W 006°20'0 0.0
2019-Aug-17 06:58N 52°15' W 006°20'0 0.0
2019-Aug-17 06:28N 52°15' W 006°20'0 0.3
2019-Aug-17 06:01N 52°15' W 006°20'0 0.7
2019-Aug-17 05:31N 52°16' W 006°20'0 0.1
2019-Aug-17 05:00N 52°16' W 006°20'0 0.0
2019-Aug-17 04:31N 52°16' W 006°20'0 0.0
2019-Aug-17 04:00N 52°16' W 006°20'0 0.0
2019-Aug-17 03:31N 52°16' W 006°20'0 0.0
2019-Aug-17 03:01N 52°16' W 006°20'0 0.0
2019-Aug-17 02:31N 52°16' W 006°20'0 0.2
2019-Aug-17 02:01N 52°16' W 006°20'3 5.9
2019-Aug-17 01:30N 52°19' W 006°19'3 5.8
2019-Aug-17 01:01N 52°22' W 006°18'3 5.0
2019-Aug-17 00:30N 52°24' W 006°16'2 4.5
2019-Aug-17 00:00N 52°26' W 006°14'2 4.1
2019-Aug-16 23:30N 52°28' W 006°13'2 4.3
2019-Aug-16 23:01N 52°30' W 006°12'2 4.2
2019-Aug-16 22:30N 52°32' W 006°10'2 3.4
2019-Aug-16 21:55N 52°33' W 006°09'17 2.4
2019-Aug-16 14:48N 52°50' W 006°00'2 4.4
2019-Aug-16 14:25N 52°51' W 006°00'2 3.8
2019-Aug-16 13:58N 52°53' W 005°60'2 4.0
2019-Aug-16 13:28N 52°55' W 005°58'2 4.7
2019-Aug-16 13:00N 52°57' W 005°58'2 4.7
2019-Aug-16 12:31N 52°59' W 006°00'1 1.6
2019-Aug-16 12:00N 52°59' W 006°02'0 0.0
2019-Aug-16 11:31N 52°59' W 006°02'0 0.0
2019-Aug-16 11:01N 52°59' W 006°02'0 0.0
2019-Aug-16 10:30N 52°59' W 006°02'0 0.0
2019-Aug-16 10:01N 52°59' W 006°02'0 0.1
2019-Aug-16 09:30N 52°59' W 006°02'0 0.0
2019-Aug-16 09:00N 52°59' W 006°02'0 0.0
2019-Aug-16 08:31N 52°59' W 006°02'0 0.0
2019-Aug-16 08:01N 52°59' W 006°02'0 0.0
2019-Aug-16 07:31N 52°59' W 006°02'0 0.0
2019-Aug-16 07:00N 52°59' W 006°02'0 0.0
2019-Aug-16 06:30N 52°59' W 006°02'0 0.0
2019-Aug-16 06:01N 52°59' W 006°02'0 0.0
2019-Aug-16 05:30N 52°59' W 006°02'0 0.0
2019-Aug-16 05:00N 52°59' W 006°02'0 0.0
2019-Aug-16 04:31N 52°59' W 006°02'0 0.2
2019-Aug-16 04:00N 52°59' W 006°02'2 3.1
2019-Aug-16 03:31N 52°59' W 005°59'2 4.4
2019-Aug-16 03:00N 52°59' W 005°56'2 3.5
2019-Aug-16 02:31N 52°59' W 005°53'3 4.2
2019-Aug-16 01:54N 52°58' W 005°49'2 4.9
2019-Aug-16 01:26N 52°58' W 005°45'2 4.7
2019-Aug-16 00:55N 52°58' W 005°41'4 2.6
2019-Aug-15 23:22N 53°02' W 005°45'2 3.9
2019-Aug-15 22:52N 53°03' W 005°47'2 4.4
2019-Aug-15 22:30N 53°04' W 005°50'2 2.7
2019-Aug-15 21:56N 53°04' W 005°52'1 3.3
2019-Aug-15 21:31N 53°05' W 005°53'2 3.1
2019-Aug-15 21:01N 53°07' W 005°55'1 2.4
2019-Aug-15 20:30N 53°07' W 005°57'1 1.6
2019-Aug-15 20:00N 53°08' W 005°57'1 2.3
2019-Aug-15 19:30N 53°09' W 005°57'1 2.5
2019-Aug-15 18:59N 53°11' W 005°58'1 2.5
2019-Aug-15 18:30N 53°12' W 005°58'4 2.2
2019-Aug-15 16:46N 53°15' W 006°01'0 0.4
2019-Aug-15 16:16N 53°15' W 006°01'1 1.6
2019-Aug-15 15:56N 53°15' W 006°02'1 2.3
2019-Aug-15 15:26N 53°16' W 006°03'2 3.8
2019-Aug-15 14:59N 53°18' W 006°05'1 2.7
2019-Aug-15 14:30N 53°19' W 006°06'1 2.5
2019-Aug-15 13:57N 53°20' W 006°07'1 1.3
2019-Aug-15 13:30N 53°20' W 006°07'1 2.0
2019-Aug-15 12:52N 53°19' W 006°05'0 1.2
2019-Aug-15 12:30N 53°18' W 006°05'1 1.0
2019-Aug-15 12:00N 53°18' W 006°04'0 0.9
2019-Aug-15 11:30N 53°19' W 006°03'2 4.5
2019-Aug-15 11:00N 53°20' W 006°06'3 5.9
2019-Aug-15 10:30N 53°21' W 006°11'2 2.8
2019-Aug-15 09:47N 53°21' W 006°14'0 0.0
2019-Aug-15 09:11N 53°21' W 006°14'0 0.0
2019-Aug-15 08:17N 53°21' W 006°14'0 0.0
2019-Aug-15 07:53N 53°21' W 006°14'0 0.0
2019-Aug-15 07:29N 53°21' W 006°14'0 0.0
2019-Aug-15 06:41N 53°21' W 006°14'0 0.0
2019-Aug-15 06:11N 53°21' W 006°14'0 0.0
2019-Aug-15 05:23N 53°21' W 006°14'0 0.0
2019-Aug-15 04:53N 53°21' W 006°14'0 0.0
2019-Aug-15 04:29N 53°21' W 006°14'0 0.0
2019-Aug-15 03:07N 53°21' W 006°14'0 0.0
2019-Aug-15 02:18N 53°21' W 006°14'0 0.0
2019-Aug-15 01:39N 53°21' W 006°14'0 0.0
2019-Aug-15 01:30N 53°21' W 006°14'0 0.0
2019-Aug-15 00:45N 53°21' W 006°14'0 0.0
2019-Aug-15 00:21N 53°21' W 006°14'0 0.0
2019-Aug-14 23:57N 53°21' W 006°14'0 0.0
2019-Aug-14 23:30N 53°21' W 006°14'0 0.0
2019-Aug-14 22:42N 53°21' W 006°14'0 0.0
2019-Aug-14 22:12N 53°21' W 006°14'0 0.0
2019-Aug-14 21:18N 53°21' W 006°14'0 0.0
2019-Aug-14 20:57N 53°21' W 006°14'0 0.0
2019-Aug-14 20:27N 53°21' W 006°14'0 0.0
2019-Aug-14 19:39N 53°21' W 006°14'0 0.0
2019-Aug-14 18:09N 53°21' W 006°14'0 0.0
2019-Aug-14 17:39N 53°21' W 006°14'0 0.0
2019-Aug-14 14:51N 53°21' W 006°14'0 0.0
2019-Aug-14 13:57N 53°21' W 006°14'0 0.0
2019-Aug-14 13:27N 53°21' W 006°14'0 0.0
2019-Aug-14 12:15N 53°21' W 006°14'0 0.0
2019-Aug-14 11:48N 53°21' W 006°14'0 0.0
2019-Aug-14 11:15N 53°21' W 006°14'0 0.0
2019-Aug-14 10:54N 53°21' W 006°14'0 0.0
2019-Aug-14 09:36N 53°21' W 006°14'0 0.0
2019-Aug-14 09:09N 53°21' W 006°14'0 0.0
2019-Aug-14 08:57N 53°21' W 006°14'0 0.0
2019-Aug-14 08:15N 53°21' W 006°14'0 0.0
2019-Aug-14 07:45N 53°21' W 006°14'0 0.0
2019-Aug-14 07:09N 53°21' W 006°14'0 0.0
2019-Aug-14 06:51N 53°21' W 006°14'0 0.0
2019-Aug-14 06:18N 53°21' W 006°14'0 0.0
2019-Aug-14 02:57N 53°21' W 006°14'0 0.0
2019-Aug-14 01:41N 53°21' W 006°14'0 0.0
2019-Aug-14 01:20N 53°21' W 006°14'0 0.0
2019-Aug-14 00:56N 53°21' W 006°14'0 0.0
2019-Aug-14 00:05N 53°21' W 006°14'0 0.0
2019-Aug-13 23:38N 53°21' W 006°14'0 0.0
2019-Aug-13 17:08N 53°21' W 006°14'0 0.0
2019-Aug-13 16:44N 53°21' W 006°14'0 0.0
2019-Aug-13 16:17N 53°21' W 006°14'0 0.0
2019-Aug-13 14:56N 53°21' W 006°14'0 0.0
2019-Aug-13 14:08N 53°21' W 006°14'0 0.0
2019-Aug-13 11:26N 53°21' W 006°14'0 0.0
2019-Aug-13 10:14N 53°21' W 006°14'0 0.0
2019-Aug-13 09:50N 53°21' W 006°14'0 0.0
2019-Aug-13 09:20N 53°21' W 006°14'0 0.0
2019-Aug-13 08:56N 53°21' W 006°14'0 0.0
2019-Aug-13 08:05N 53°21' W 006°14'0 0.0
2019-Aug-13 07:38N 53°21' W 006°14'0 0.0
2019-Aug-13 07:14N 53°21' W 006°14'0 0.0
2019-Aug-13 06:41N 53°21' W 006°14'0 0.0
2019-Aug-13 06:14N 53°21' W 006°14'0 0.0
2019-Aug-13 04:38N 53°21' W 006°14'0 0.0
2019-Aug-13 00:50N 53°21' W 006°14'0 0.0
2019-Aug-13 00:20N 53°21' W 006°14'0 0.0
2019-Aug-12 23:47N 53°21' W 006°14'0 0.0
2019-Aug-12 22:44N 53°21' W 006°14'0 0.0
2019-Aug-12 22:05N 53°21' W 006°14'0 0.0
2019-Aug-12 21:59N 53°21' W 006°14'0 0.0
2019-Aug-12 21:26N 53°21' W 006°14'0 0.0
2019-Aug-12 20:59N 53°21' W 006°14'0 0.0
2019-Aug-12 20:17N 53°21' W 006°14'0 0.0
2019-Aug-12 19:56N 53°21' W 006°14'0 0.0
2019-Aug-12 18:02N 53°21' W 006°14'0 0.0
2019-Aug-12 14:53N 53°21' W 006°14'0 0.0
2019-Aug-12 14:26N 53°21' W 006°14'0 0.1
2019-Aug-12 13:57N 53°21' W 006°14'2 4.6
2019-Aug-12 13:30N 53°21' W 006°10'2 4.7
2019-Aug-12 12:59N 53°20' W 006°06'2 2.8
2019-Aug-12 12:10N 53°18' W 006°07'0 0.0
2019-Aug-12 11:58N 53°18' W 006°07'0 0.0
2019-Aug-12 11:16N 53°18' W 006°07'0 0.0
2019-Aug-12 10:43N 53°18' W 006°07'0 0.0
2019-Aug-12 09:55N 53°18' W 006°07'0 0.0
2019-Aug-12 09:25N 53°18' W 006°07'0 0.0
2019-Aug-12 08:55N 53°18' W 006°07'  
Track history (hours):
 
Tides and Currents Weather Stations Pressure Air Temp Water Temp Dewpoint Dewpoint Depression Visibility Wind Speed Wind Dir Waves Ship Positions

Pelican of London

Ship's website: http://www.adventureundersail.com/

Last reported at 2019-Aug-22 08:29 UTC. Time now 2019-Aug-22 08:52 UTC.
Position N 51°41' W 008°30'.

Length 35 m; draft 4 m.

Type: Other ship. MMSI: 235057366.

Date/timePositionNaut miles runAvg speedWind from/ knotsBaromVisibWave heightAir tempDewpointWater temp
2019-Aug-22 08:29N 51°41' W 008°30'1 1.9
2019-Aug-22 08:00N 51°42' W 008°31'0 0.0
2019-Aug-22 07:27N 51°42' W 008°31'0 0.0
2019-Aug-22 07:00N 51°42' W 008°31'0 0.0
2019-Aug-22 06:30N 51°42' W 008°31'0 0.0
2019-Aug-22 06:00N 51°42' W 008°31'0 0.0
2019-Aug-22 05:29N 51°42' W 008°31'0 0.0
2019-Aug-22 04:59N 51°42' W 008°31'0 0.0
2019-Aug-22 04:29N 51°42' W 008°31'0 0.0
2019-Aug-22 03:59N 51°42' W 008°31'0 0.0
2019-Aug-22 03:29N 51°42' W 008°31'0 0.0
2019-Aug-22 02:59N 51°42' W 008°31'0 0.0
2019-Aug-22 02:29N 51°42' W 008°31'0 0.0
2019-Aug-22 01:56N 51°42' W 008°31'0 0.0
2019-Aug-22 01:29N 51°42' W 008°31'0 0.0
2019-Aug-22 00:56N 51°42' W 008°31'0 0.0
2019-Aug-22 00:26N 51°42' W 008°31'0 0.0
2019-Aug-21 23:59N 51°42' W 008°31'0 0.0
2019-Aug-21 23:29N 51°42' W 008°31'0 0.0
2019-Aug-21 22:59N 51°42' W 008°31'0 0.0
2019-Aug-21 22:23N 51°42' W 008°31'0 0.0
2019-Aug-21 21:59N 51°42' W 008°31'0 0.0
2019-Aug-21 21:29N 51°42' W 008°31'0 0.0
2019-Aug-21 20:59N 51°42' W 008°31'0 0.0
2019-Aug-21 20:29N 51°42' W 008°31'0 0.0
2019-Aug-21 19:59N 51°42' W 008°31'0 0.0
2019-Aug-21 19:23N 51°42' W 008°31'0 0.0
2019-Aug-21 18:59N 51°42' W 008°31'0 0.0
2019-Aug-21 18:29N 51°42' W 008°31'0 0.0
2019-Aug-21 17:59N 51°42' W 008°31'0 0.0
2019-Aug-21 17:29N 51°42' W 008°31'0 0.0
2019-Aug-21 16:59N 51°42' W 008°31'0 0.4
2019-Aug-21 16:26N 51°42' W 008°31'2 4.2
2019-Aug-21 16:00N 51°41' W 008°30'3 5.3
2019-Aug-21 15:31N 51°38' W 008°31'1 1.6
2019-Aug-21 14:53N 51°37' W 008°32'0 0.0
2019-Aug-21 14:26N 51°37' W 008°32'0 0.0
2019-Aug-21 14:00N 51°37' W 008°32'0 0.0
2019-Aug-21 13:30N 51°37' W 008°32'0 0.0
2019-Aug-21 13:00N 51°37' W 008°32'0 0.0
2019-Aug-21 12:30N 51°37' W 008°32'0 0.0
2019-Aug-21 12:01N 51°37' W 008°32'0 0.0
2019-Aug-21 11:30N 51°37' W 008°32'0 0.0
2019-Aug-21 10:58N 51°37' W 008°32'0 0.0
2019-Aug-21 10:30N 51°37' W 008°32'0 0.0
2019-Aug-21 10:00N 51°37' W 008°32'0 0.0
2019-Aug-21 09:29N 51°37' W 008°32'0 0.0
2019-Aug-21 09:00N 51°37' W 008°32'0 0.0
2019-Aug-21 08:30N 51°37' W 008°32'0 0.0
2019-Aug-21 08:00N 51°37' W 008°32'0 0.1
2019-Aug-21 07:29N 51°37' W 008°32'1 2.5
2019-Aug-21 07:00N 51°38' W 008°30'0 0.9
2019-Aug-21 06:30N 51°38' W 008°30'1 2.4
2019-Aug-21 06:00N 51°38' W 008°28'2 3.1
2019-Aug-21 05:30N 51°38' W 008°25'2 3.3
2019-Aug-21 05:00N 51°38' W 008°22'2 3.7
2019-Aug-21 04:30N 51°39' W 008°20'2 3.6
2019-Aug-21 04:00N 51°39' W 008°17'2 4.1
2019-Aug-21 03:30N 51°39' W 008°13'3 5.6
2019-Aug-21 03:00N 51°40' W 008°09'4 7.1
2019-Aug-21 02:30N 51°40' W 008°03'4 7.1
2019-Aug-21 02:00N 51°41' W 007°58'3 6.8
2019-Aug-21 01:30N 51°41' W 007°52'3 6.2
2019-Aug-21 01:00N 51°42' W 007°47'3 6.2
2019-Aug-21 00:31N 51°44' W 007°44'3 6.5
2019-Aug-21 00:00N 51°46' W 007°40'3 6.3
2019-Aug-20 23:30N 51°48' W 007°37'3 5.7
2019-Aug-20 23:00N 51°50' W 007°33'3 5.5
2019-Aug-20 22:30N 51°52' W 007°30'3 5.2
2019-Aug-20 21:59N 51°54' W 007°27'3 4.5
2019-Aug-20 21:24N 51°56' W 007°24'29 0.8
2019-Aug-19 11:14N 52°08' W 006°42'0 1.7
2019-Aug-19 10:58N 52°09' W 006°42'14 1.6
2019-Aug-19 02:18N 52°02' W 006°22'1 3.8
2019-Aug-19 01:57N 52°03' W 006°21'2 3.9
2019-Aug-19 01:30N 52°05' W 006°19'2 4.1
2019-Aug-19 00:59N 52°06' W 006°17'2 3.9
2019-Aug-19 00:30N 52°08' W 006°15'2 3.4
2019-Aug-19 00:00N 52°09' W 006°13'1 2.9
2019-Aug-18 23:30N 52°10' W 006°12'1 2.5
2019-Aug-18 23:00N 52°11' W 006°11'1 2.1
2019-Aug-18 22:30N 52°12' W 006°11'2 4.0
2019-Aug-18 22:00N 52°14' W 006°13'2 3.0
2019-Aug-18 21:30N 52°15' W 006°15'2 4.3
2019-Aug-18 21:01N 52°15' W 006°18'1 2.0
2019-Aug-18 20:30N 52°16' W 006°20'1 1.0
2019-Aug-18 19:58N 52°15' W 006°20'0 0.0
2019-Aug-18 19:28N 52°15' W 006°20'0 0.0
2019-Aug-18 18:58N 52°15' W 006°20'0 0.0
2019-Aug-18 18:28N 52°15' W 006°20'0 0.0
2019-Aug-18 17:58N 52°15' W 006°20'0 0.0
2019-Aug-18 17:28N 52°15' W 006°20'0 0.0
2019-Aug-18 16:52N 52°15' W 006°20'0 0.0
2019-Aug-18 16:28N 52°15' W 006°20'0 0.0
2019-Aug-18 15:58N 52°15' W 006°20'0 0.0
2019-Aug-18 15:28N 52°15' W 006°20'0 0.0
2019-Aug-18 14:58N 52°15' W 006°20'0 0.0
2019-Aug-18 14:28N 52°15' W 006°20'0 0.0
2019-Aug-18 13:58N 52°15' W 006°20'0 0.0
2019-Aug-18 13:28N 52°15' W 006°20'0 0.0
2019-Aug-18 12:58N 52°15' W 006°20'0 0.0
2019-Aug-18 12:28N 52°15' W 006°20'0 0.0
2019-Aug-18 11:58N 52°15' W 006°20'0 0.0
2019-Aug-18 11:28N 52°15' W 006°20'0 0.0
2019-Aug-18 10:58N 52°15' W 006°20'0 0.0
2019-Aug-18 10:28N 52°15' W 006°20'0 0.0
2019-Aug-18 09:55N 52°15' W 006°20'0 0.0
2019-Aug-18 09:28N 52°15' W 006°20'0 0.0
2019-Aug-18 08:58N 52°15' W 006°20'0 0.0
2019-Aug-18 08:28N 52°15' W 006°20'0 0.0
2019-Aug-18 07:58N 52°15' W 006°20'0 0.0
2019-Aug-18 06:58N 52°15' W 006°20'0 0.0
2019-Aug-18 06:22N 52°15' W 006°20'0 0.0
2019-Aug-18 05:58N 52°15' W 006°20'0 0.0
2019-Aug-18 05:28N 52°15' W 006°20'0 0.0
2019-Aug-18 04:58N 52°15' W 006°20'0 0.0
2019-Aug-18 04:28N 52°15' W 006°20'0 0.0
2019-Aug-18 03:58N 52°15' W 006°20'0 0.0
2019-Aug-18 03:28N 52°15' W 006°20'0 0.0
2019-Aug-18 02:58N 52°15' W 006°20'0 0.0
2019-Aug-18 02:22N 52°15' W 006°20'0 0.0
2019-Aug-18 01:58N 52°15' W 006°20'0 0.0
2019-Aug-18 01:28N 52°15' W 006°20'0 0.0
2019-Aug-18 00:58N 52°15' W 006°20'0 0.0
2019-Aug-18 00:28N 52°15' W 006°20'0 0.0
2019-Aug-17 23:58N 52°15' W 006°20'0 0.0
2019-Aug-17 23:28N 52°15' W 006°20'0 0.0
2019-Aug-17 22:58N 52°15' W 006°20'0 0.0
2019-Aug-17 22:28N 52°15' W 006°20'0 0.0
2019-Aug-17 21:58N 52°15' W 006°20'0 0.0
2019-Aug-17 21:28N 52°15' W 006°20'0 0.0
2019-Aug-17 20:58N 52°15' W 006°20'0 0.0
2019-Aug-17 20:28N 52°15' W 006°20'0 0.0
2019-Aug-17 19:58N 52°15' W 006°20'0 0.0
2019-Aug-17 19:28N 52°15' W 006°20'0 0.0
2019-Aug-17 18:58N 52°15' W 006°20'0 0.0
2019-Aug-17 18:28N 52°15' W 006°20'0 0.0
2019-Aug-17 17:28N 52°15' W 006°20'0 0.0
2019-Aug-17 16:58N 52°15' W 006°20'0 0.0
2019-Aug-17 16:28N 52°15' W 006°20'0 0.0
2019-Aug-17 15:58N 52°15' W 006°20'0 0.0
2019-Aug-17 15:28N 52°15' W 006°20'0 0.0
2019-Aug-17 14:58N 52°15' W 006°20'0 0.0
2019-Aug-17 14:28N 52°15' W 006°20'0 0.0
2019-Aug-17 13:58N 52°15' W 006°20'0 0.0
2019-Aug-17 13:25N 52°15' W 006°20'0 0.0
2019-Aug-17 12:58N 52°15' W 006°20'0 0.0
2019-Aug-17 12:28N 52°15' W 006°20'0 0.0
2019-Aug-17 11:58N 52°15' W 006°20'0 0.0
2019-Aug-17 11:28N 52°15' W 006°20'0 0.0
2019-Aug-17 10:58N 52°15' W 006°20'0 0.0
2019-Aug-17 10:28N 52°15' W 006°20'0 0.0
2019-Aug-17 09:58N 52°15' W 006°20'0 0.0
2019-Aug-17 09:25N 52°15' W 006°20'0 0.0
2019-Aug-17 08:58N 52°15' W 006°20'0 0.0
2019-Aug-17 08:28N 52°15' W 006°20'0 0.0
2019-Aug-17 07:58N 52°15' W 006°20'0 0.0
2019-Aug-17 07:28N 52°15' W 006°20'0 0.0
2019-Aug-17 06:58N 52°15' W 006°20'0 0.0
2019-Aug-17 06:28N 52°15' W 006°20'0 0.3
2019-Aug-17 06:01N 52°15' W 006°20'0 0.7
2019-Aug-17 05:31N 52°16' W 006°20'0 0.1
2019-Aug-17 05:00N 52°16' W 006°20'0 0.0
2019-Aug-17 04:31N 52°16' W 006°20'0 0.0
2019-Aug-17 04:00N 52°16' W 006°20'0 0.0
2019-Aug-17 03:31N 52°16' W 006°20'0 0.0
2019-Aug-17 03:01N 52°16' W 006°20'0 0.0
2019-Aug-17 02:31N 52°16' W 006°20'0 0.2
2019-Aug-17 02:01N 52°16' W 006°20'3 5.9
2019-Aug-17 01:30N 52°19' W 006°19'3 5.8
2019-Aug-17 01:01N 52°22' W 006°18'3 5.0
2019-Aug-17 00:30N 52°24' W 006°16'2 4.5
2019-Aug-17 00:00N 52°26' W 006°14'2 4.1
2019-Aug-16 23:30N 52°28' W 006°13'2 4.3
2019-Aug-16 23:01N 52°30' W 006°12'2 4.2
2019-Aug-16 22:30N 52°32' W 006°10'2 3.4
2019-Aug-16 21:55N 52°33' W 006°09'17 2.4
2019-Aug-16 14:48N 52°50' W 006°00'2 4.4
2019-Aug-16 14:25N 52°51' W 006°00'2 3.8
2019-Aug-16 13:58N 52°53' W 005°60'2 4.0
2019-Aug-16 13:28N 52°55' W 005°58'2 4.7
2019-Aug-16 13:00N 52°57' W 005°58'2 4.7
2019-Aug-16 12:31N 52°59' W 006°00'1 1.6
2019-Aug-16 12:00N 52°59' W 006°02'0 0.0
2019-Aug-16 11:31N 52°59' W 006°02'0 0.0
2019-Aug-16 11:01N 52°59' W 006°02'0 0.0
2019-Aug-16 10:30N 52°59' W 006°02'0 0.0
2019-Aug-16 10:01N 52°59' W 006°02'0 0.1
2019-Aug-16 09:30N 52°59' W 006°02'0 0.0
2019-Aug-16 09:00N 52°59' W 006°02'0 0.0
2019-Aug-16 08:31N 52°59' W 006°02'0 0.0
2019-Aug-16 08:01N 52°59' W 006°02'0 0.0
2019-Aug-16 07:31N 52°59' W 006°02'0 0.0
2019-Aug-16 07:00N 52°59' W 006°02'0 0.0
2019-Aug-16 06:30N 52°59' W 006°02'0 0.0
2019-Aug-16 06:01N 52°59' W 006°02'0 0.0
2019-Aug-16 05:30N 52°59' W 006°02'0 0.0
2019-Aug-16 05:00N 52°59' W 006°02'0 0.0
2019-Aug-16 04:31N 52°59' W 006°02'0 0.2
2019-Aug-16 04:00N 52°59' W 006°02'2 3.1
2019-Aug-16 03:31N 52°59' W 005°59'2 4.4
2019-Aug-16 03:00N 52°59' W 005°56'2 3.5
2019-Aug-16 02:31N 52°59' W 005°53'3 4.2
2019-Aug-16 01:54N 52°58' W 005°49'2 4.9
2019-Aug-16 01:26N 52°58' W 005°45'2 4.7
2019-Aug-16 00:55N 52°58' W 005°41'4 2.6
2019-Aug-15 23:22N 53°02' W 005°45'2 3.9
2019-Aug-15 22:52N 53°03' W 005°47'2 4.4
2019-Aug-15 22:30N 53°04' W 005°50'2 2.7
2019-Aug-15 21:56N 53°04' W 005°52'1 3.3
2019-Aug-15 21:31N 53°05' W 005°53'2 3.1
2019-Aug-15 21:01N 53°07' W 005°55'1 2.4
2019-Aug-15 20:30N 53°07' W 005°57'1 1.6
2019-Aug-15 20:00N 53°08' W 005°57'1 2.3
2019-Aug-15 19:30N 53°09' W 005°57'1 2.5
2019-Aug-15 18:59N 53°11' W 005°58'1 2.5
2019-Aug-15 18:30N 53°12' W 005°58'4 2.2
2019-Aug-15 16:46N 53°15' W 006°01'0 0.4
2019-Aug-15 16:16N 53°15' W 006°01'1 1.6
2019-Aug-15 15:56N 53°15' W 006°02'1 2.3
2019-Aug-15 15:26N 53°16' W 006°03'2 3.8
2019-Aug-15 14:59N 53°18' W 006°05'1 2.7
2019-Aug-15 14:30N 53°19' W 006°06'1 2.5
2019-Aug-15 13:57N 53°20' W 006°07'1 1.3
2019-Aug-15 13:30N 53°20' W 006°07'1 2.0
2019-Aug-15 12:52N 53°19' W 006°05'0 1.2
2019-Aug-15 12:30N 53°18' W 006°05'1 1.0
2019-Aug-15 12:00N 53°18' W 006°04'0 0.9
2019-Aug-15 11:30N 53°19' W 006°03'2 4.5
2019-Aug-15 11:00N 53°20' W 006°06'3 5.9
2019-Aug-15 10:30N 53°21' W 006°11'2 2.8
2019-Aug-15 09:47N 53°21' W 006°14'0 0.0
2019-Aug-15 09:11N 53°21' W 006°14'0 0.0
2019-Aug-15 08:17N 53°21' W 006°14'0 0.0
2019-Aug-15 07:53N 53°21' W 006°14'0 0.0
2019-Aug-15 07:29N 53°21' W 006°14'0 0.0
2019-Aug-15 06:41N 53°21' W 006°14'0 0.0
2019-Aug-15 06:11N 53°21' W 006°14'0 0.0
2019-Aug-15 05:23N 53°21' W 006°14'0 0.0
2019-Aug-15 04:53N 53°21' W 006°14'0 0.0
2019-Aug-15 04:29N 53°21' W 006°14'0 0.0
2019-Aug-15 03:07N 53°21' W 006°14'0 0.0
2019-Aug-15 02:18N 53°21' W 006°14'0 0.0
2019-Aug-15 01:39N 53°21' W 006°14'0 0.0
2019-Aug-15 01:30N 53°21' W 006°14'0 0.0
2019-Aug-15 00:45N 53°21' W 006°14'0 0.0
2019-Aug-15 00:21N 53°21' W 006°14'0 0.0
2019-Aug-14 23:57N 53°21' W 006°14'0 0.0
2019-Aug-14 23:30N 53°21' W 006°14'0 0.0
2019-Aug-14 22:42N 53°21' W 006°14'0 0.0
2019-Aug-14 22:12N 53°21' W 006°14'0 0.0
2019-Aug-14 21:18N 53°21' W 006°14'0 0.0
2019-Aug-14 20:57N 53°21' W 006°14'0 0.0
2019-Aug-14 20:27N 53°21' W 006°14'0 0.0
2019-Aug-14 19:39N 53°21' W 006°14'0 0.0
2019-Aug-14 18:09N 53°21' W 006°14'0 0.0
2019-Aug-14 17:39N 53°21' W 006°14'0 0.0
2019-Aug-14 14:51N 53°21' W 006°14'0 0.0
2019-Aug-14 13:57N 53°21' W 006°14'0 0.0
2019-Aug-14 13:27N 53°21' W 006°14'0 0.0
2019-Aug-14 12:15N 53°21' W 006°14'0 0.0
2019-Aug-14 11:48N 53°21' W 006°14'0 0.0
2019-Aug-14 11:15N 53°21' W 006°14'0 0.0
2019-Aug-14 10:54N 53°21' W 006°14'0 0.0
2019-Aug-14 09:36N 53°21' W 006°14'0 0.0
2019-Aug-14 09:09N 53°21' W 006°14'0 0.0
2019-Aug-14 08:57N 53°21' W 006°14'0 0.0
2019-Aug-14 08:15N 53°21' W 006°14'0 0.0
2019-Aug-14 07:45N 53°21' W 006°14'0 0.0
2019-Aug-14 07:09N 53°21' W 006°14'0 0.0
2019-Aug-14 06:51N 53°21' W 006°14'0 0.0
2019-Aug-14 06:18N 53°21' W 006°14'0 0.0
2019-Aug-14 02:57N 53°21' W 006°14'0 0.0
2019-Aug-14 01:41N 53°21' W 006°14'0 0.0
2019-Aug-14 01:20N 53°21' W 006°14'0 0.0
2019-Aug-14 00:56N 53°21' W 006°14'0 0.0
2019-Aug-14 00:05N 53°21' W 006°14'0 0.0
2019-Aug-13 23:38N 53°21' W 006°14'0 0.0
2019-Aug-13 17:08N 53°21' W 006°14'0 0.0
2019-Aug-13 16:44N 53°21' W 006°14'0 0.0
2019-Aug-13 16:17N 53°21' W 006°14'0 0.0
2019-Aug-13 14:56N 53°21' W 006°14'0 0.0
2019-Aug-13 14:08N 53°21' W 006°14'0 0.0
2019-Aug-13 11:26N 53°21' W 006°14'0 0.0
2019-Aug-13 10:14N 53°21' W 006°14'0 0.0
2019-Aug-13 09:50N 53°21' W 006°14'0 0.0
2019-Aug-13 09:20N 53°21' W 006°14'0 0.0
2019-Aug-13 08:56N 53°21' W 006°14'0 0.0
2019-Aug-13 08:05N 53°21' W 006°14'0 0.0
2019-Aug-13 07:38N 53°21' W 006°14'0 0.0
2019-Aug-13 07:14N 53°21' W 006°14'0 0.0
2019-Aug-13 06:41N 53°21' W 006°14'0 0.0
2019-Aug-13 06:14N 53°21' W 006°14'0 0.0
2019-Aug-13 04:38N 53°21' W 006°14'0 0.0
2019-Aug-13 00:50N 53°21' W 006°14'0 0.0
2019-Aug-13 00:20N 53°21' W 006°14'0 0.0
2019-Aug-12 23:47N 53°21' W 006°14'0 0.0
2019-Aug-12 22:44N 53°21' W 006°14'0 0.0
2019-Aug-12 22:05N 53°21' W 006°14'0 0.0
2019-Aug-12 21:59N 53°21' W 006°14'0 0.0
2019-Aug-12 21:26N 53°21' W 006°14'0 0.0
2019-Aug-12 20:59N 53°21' W 006°14'0 0.0
2019-Aug-12 20:17N 53°21' W 006°14'0 0.0
2019-Aug-12 19:56N 53°21' W 006°14'0 0.0
2019-Aug-12 18:02N 53°21' W 006°14'0 0.0
2019-Aug-12 14:53N 53°21' W 006°14'0 0.0
2019-Aug-12 14:26N 53°21' W 006°14'0 0.1
2019-Aug-12 13:57N 53°21' W 006°14'2 4.6
2019-Aug-12 13:30N 53°21' W 006°10'2 4.7
2019-Aug-12 12:59N 53°20' W 006°06'2 2.8
2019-Aug-12 12:10N 53°18' W 006°07'0 0.0
2019-Aug-12 11:58N 53°18' W 006°07'0 0.0
2019-Aug-12 11:16N 53°18' W 006°07'0 0.0
2019-Aug-12 10:43N 53°18' W 006°07'0 0.0
2019-Aug-12 09:55N 53°18' W 006°07'0 0.0
2019-Aug-12 09:25N 53°18' W 006°07'0 0.0
2019-Aug-12 08:55N 53°18' W 006°07'  

Dump ship's entire track history